sensor_id;sensor_type;location;lat;lon;timestamp;pressure;altitude;pressure_sealevel;temperature
64394;BMP280;50712;49.506;10.400;2023-08-31T00:00:25;97397.34;;;18.52
64394;BMP280;50712;49.506;10.400;2023-08-31T00:01:00;97399.34;;;18.52
64394;BMP280;50712;49.506;10.400;2023-08-31T00:01:31;97397.81;;;18.51
64394;BMP280;50712;49.506;10.400;2023-08-31T00:02:01;97396.59;;;18.52
64394;BMP280;50712;49.506;10.400;2023-08-31T00:02:31;97390.81;;;18.50
64394;BMP280;50712;49.506;10.400;2023-08-31T00:03:02;97399.84;;;18.50
64394;BMP280;50712;49.506;10.400;2023-08-31T00:03:32;97393.59;;;18.50
64394;BMP280;50712;49.506;10.400;2023-08-31T00:04:04;97401.88;;;18.50
64394;BMP280;50712;49.506;10.400;2023-08-31T00:04:35;97403.91;;;18.49
64394;BMP280;50712;49.506;10.400;2023-08-31T00:05:06;97405.16;;;18.48
64394;BMP280;50712;49.506;10.400;2023-08-31T00:05:37;97404.38;;;18.48
64394;BMP280;50712;49.506;10.400;2023-08-31T00:06:10;97405.16;;;18.48
64394;BMP280;50712;49.506;10.400;2023-08-31T00:06:41;97403.63;;;18.47
64394;BMP280;50712;49.506;10.400;2023-08-31T00:07:12;97401.63;;;18.48
64394;BMP280;50712;49.506;10.400;2023-08-31T00:07:42;97396.63;;;18.46
64394;BMP280;50712;49.506;10.400;2023-08-31T00:08:12;97399.38;;;18.46
64394;BMP280;50712;49.506;10.400;2023-08-31T00:08:43;97400.13;;;18.47
64394;BMP280;50712;49.506;10.400;2023-08-31T00:09:13;97402.16;;;18.46
64394;BMP280;50712;49.506;10.400;2023-08-31T00:09:44;97399.16;;;18.44
64394;BMP280;50712;49.506;10.400;2023-08-31T00:10:15;97399.91;;;18.45
64394;BMP280;50712;49.506;10.400;2023-08-31T00:10:47;97400.41;;;18.43
64394;BMP280;50712;49.506;10.400;2023-08-31T00:11:26;97400.41;;;18.43
64394;BMP280;50712;49.506;10.400;2023-08-31T00:11:56;97400.41;;;18.43
64394;BMP280;50712;49.506;10.400;2023-08-31T00:12:26;97399.69;;;18.43
64394;BMP280;50712;49.506;10.400;2023-08-31T00:12:57;97398.94;;;18.42
64394;BMP280;50712;49.506;10.400;2023-08-31T00:13:27;97403.69;;;18.42
64394;BMP280;50712;49.506;10.400;2023-08-31T00:13:58;97400.91;;;18.42
64394;BMP280;50712;49.506;10.400;2023-08-31T00:14:29;97400.16;;;18.41
64394;BMP280;50712;49.506;10.400;2023-08-31T00:14:59;97400.16;;;18.41
64394;BMP280;50712;49.506;10.400;2023-08-31T00:15:30;97404.94;;;18.41
64394;BMP280;50712;49.506;10.400;2023-08-31T00:16:02;97399.41;;;18.41
64394;BMP280;50712;49.506;10.400;2023-08-31T00:16:33;97399.41;;;18.41
64394;BMP280;50712;49.506;10.400;2023-08-31T00:17:03;97400.91;;;18.42
64394;BMP280;50712;49.506;10.400;2023-08-31T00:17:35;97409.19;;;18.42
64394;BMP280;50712;49.506;10.400;2023-08-31T00:18:05;97396.66;;;18.41
64394;BMP280;50712;49.506;10.400;2023-08-31T00:18:36;97402.94;;;18.41
64394;BMP280;50712;49.506;10.400;2023-08-31T00:19:06;97399.41;;;18.41
64394;BMP280;50712;49.506;10.400;2023-08-31T00:19:36;97400.16;;;18.41
64394;BMP280;50712;49.506;10.400;2023-08-31T00:20:07;97393.16;;;18.40
64394;BMP280;50712;49.506;10.400;2023-08-31T00:20:42;97396.66;;;18.41
64394;BMP280;50712;49.506;10.400;2023-08-31T00:21:12;97393.91;;;18.41
64394;BMP280;50712;49.506;10.400;2023-08-31T00:21:42;97398.69;;;18.40
64394;BMP280;50712;49.506;10.400;2023-08-31T00:22:13;97394.44;;;18.39
64394;BMP280;50712;49.506;10.400;2023-08-31T00:22:43;97390.94;;;18.39
64394;BMP280;50712;49.506;10.400;2023-08-31T00:23:14;97398.69;;;18.40
64394;BMP280;50712;49.506;10.400;2023-08-31T00:23:44;97399.97;;;18.39
64394;BMP280;50712;49.506;10.400;2023-08-31T00:24:14;97405.47;;;18.39
64394;BMP280;50712;49.506;10.400;2023-08-31T00:24:45;97411.00;;;18.39
64394;BMP280;50712;49.506;10.400;2023-08-31T00:25:15;97408.25;;;18.39
64394;BMP280;50712;49.506;10.400;2023-08-31T00:25:46;97411.75;;;18.40
64394;BMP280;50712;49.506;10.400;2023-08-31T00:26:22;97411.75;;;18.40
64394;BMP280;50712;49.506;10.400;2023-08-31T00:26:53;97415.75;;;18.39
64394;BMP280;50712;49.506;10.400;2023-08-31T00:27:24;97419.28;;;18.39
64394;BMP280;50712;49.506;10.400;2023-08-31T00:27:55;97420.03;;;18.40
64394;BMP280;50712;49.506;10.400;2023-08-31T00:28:27;97419.28;;;18.39
64394;BMP280;50712;49.506;10.400;2023-08-31T00:28:58;97419.28;;;18.39
64394;BMP280;50712;49.506;10.400;2023-08-31T00:29:28;97423.50;;;18.40
64394;BMP280;50712;49.506;10.400;2023-08-31T00:29:59;97422.03;;;18.39
64394;BMP280;50712;49.506;10.400;2023-08-31T00:30:31;97421.28;;;18.39
64394;BMP280;50712;49.506;10.400;2023-08-31T00:31:02;97428.03;;;18.38
64394;BMP280;50712;49.506;10.400;2023-08-31T00:31:36;97424.03;;;18.39
64394;BMP280;50712;49.506;10.400;2023-08-31T00:32:07;97426.03;;;18.38
64394;BMP280;50712;49.506;10.400;2023-08-31T00:32:37;97422.53;;;18.38
64394;BMP280;50712;49.506;10.400;2023-08-31T00:33:10;97418.28;;;18.37
64394;BMP280;50712;49.506;10.400;2023-08-31T00:33:41;97424.53;;;18.37
64394;BMP280;50712;49.506;10.400;2023-08-31T00:34:11;97418.28;;;18.37
64394;BMP280;50712;49.506;10.400;2023-08-31T00:34:44;97421.03;;;18.37
64394;BMP280;50712;49.506;10.400;2023-08-31T00:35:15;97416.78;;;18.36
64394;BMP280;50712;49.506;10.400;2023-08-31T00:35:45;97424.31;;;18.35
64394;BMP280;50712;49.506;10.400;2023-08-31T00:36:16;97423.56;;;18.35
64394;BMP280;50712;49.506;10.400;2023-08-31T00:36:48;97418.81;;;18.35
64394;BMP280;50712;49.506;10.400;2023-08-31T00:37:18;97420.81;;;18.35
64394;BMP280;50712;49.506;10.400;2023-08-31T00:37:51;97424.81;;;18.34
64394;BMP280;50712;49.506;10.400;2023-08-31T00:38:21;97417.28;;;18.34
64394;BMP280;50712;49.506;10.400;2023-08-31T00:38:52;97420.03;;;18.34
64394;BMP280;50712;49.506;10.400;2023-08-31T00:39:22;97418.56;;;18.33
64394;BMP280;50712;49.506;10.400;2023-08-31T00:39:52;97425.56;;;18.34
64394;BMP280;50712;49.506;10.400;2023-08-31T00:40:24;97420.03;;;18.34
64394;BMP280;50712;49.506;10.400;2023-08-31T00:40:55;97419.28;;;18.34
64394;BMP280;50712;49.506;10.400;2023-08-31T00:41:25;97420.03;;;18.34
64394;BMP280;50712;49.506;10.400;2023-08-31T00:41:56;97420.56;;;18.33
64394;BMP280;50712;49.506;10.400;2023-08-31T00:42:26;97424.81;;;18.34
64394;BMP280;50712;49.506;10.400;2023-08-31T00:42:59;97434.34;;;18.33
64394;BMP280;50712;49.506;10.400;2023-08-31T00:43:29;97428.09;;;18.32
64394;BMP280;50712;49.506;10.400;2023-08-31T00:44:00;97427.31;;;18.32
64394;BMP280;50712;49.506;10.400;2023-08-31T00:44:30;97428.84;;;18.33
64394;BMP280;50712;49.506;10.400;2023-08-31T00:45:00;97434.34;;;18.33
64394;BMP280;50712;49.506;10.400;2023-08-31T00:45:32;97433.59;;;18.32
64394;BMP280;50712;49.506;10.400;2023-08-31T00:46:02;97431.59;;;18.33
64394;BMP280;50712;49.506;10.400;2023-08-31T00:46:34;97434.34;;;18.33
64394;BMP280;50712;49.506;10.400;2023-08-31T00:47:05;97430.09;;;18.32
64394;BMP280;50712;49.506;10.400;2023-08-31T00:47:35;97434.34;;;18.33
64394;BMP280;50712;49.506;10.400;2023-08-31T00:48:06;97439.13;;;18.32
64394;BMP280;50712;49.506;10.400;2023-08-31T00:48:37;97437.63;;;18.31
64394;BMP280;50712;49.506;10.400;2023-08-31T00:49:07;97441.88;;;18.32
64394;BMP280;50712;49.506;10.400;2023-08-31T00:49:40;97441.88;;;18.32
64394;BMP280;50712;49.506;10.400;2023-08-31T00:50:10;97445.91;;;18.31
64394;BMP280;50712;49.506;10.400;2023-08-31T00:50:41;97436.88;;;18.31
64394;BMP280;50712;49.506;10.400;2023-08-31T00:51:11;97446.63;;;18.32
64394;BMP280;50712;49.506;10.400;2023-08-31T00:51:43;97443.16;;;18.31
64394;BMP280;50712;49.506;10.400;2023-08-31T00:52:20;97439.63;;;18.31
64394;BMP280;50712;49.506;10.400;2023-08-31T00:52:51;97451.41;;;18.31
64394;BMP280;50712;49.506;10.400;2023-08-31T00:53:22;97438.16;;;18.30
64394;BMP280;50712;49.506;10.400;2023-08-31T00:53:53;97435.41;;;18.30
64394;BMP280;50712;49.506;10.400;2023-08-31T00:54:25;97435.41;;;18.30
64394;BMP280;50712;49.506;10.400;2023-08-31T00:54:55;97438.16;;;18.30
64394;BMP280;50712;49.506;10.400;2023-08-31T00:55:25;97441.41;;;18.28
64394;BMP280;50712;49.506;10.400;2023-08-31T00:55:56;97435.88;;;18.28
64394;BMP280;50712;49.506;10.400;2023-08-31T00:56:27;97435.13;;;18.28
64394;BMP280;50712;49.506;10.400;2023-08-31T00:56:57;97435.88;;;18.28
64394;BMP280;50712;49.506;10.400;2023-08-31T00:57:28;97433.66;;;18.27
64394;BMP280;50712;49.506;10.400;2023-08-31T00:58:00;97428.88;;;18.27
64394;BMP280;50712;49.506;10.400;2023-08-31T00:58:30;97430.91;;;18.27
64394;BMP280;50712;49.506;10.400;2023-08-31T00:59:01;97438.44;;;18.26
64394;BMP280;50712;49.506;10.400;2023-08-31T00:59:31;97436.44;;;18.27
64394;BMP280;50712;49.506;10.400;2023-08-31T01:00:02;97430.16;;;18.26
64394;BMP280;50712;49.506;10.400;2023-08-31T01:01:32;97429.41;;;18.26
64394;BMP280;50712;49.506;10.400;2023-08-31T01:02:27;97429.41;;;18.26
64394;BMP280;50712;49.506;10.400;2023-08-31T01:03:14;97442.44;;;18.25
64394;BMP280;50712;49.506;10.400;2023-08-31T01:04:58;97445.19;;;18.25
64394;BMP280;50712;49.506;10.400;2023-08-31T01:06:41;97444.97;;;18.23
64394;BMP280;50712;49.506;10.400;2023-08-31T01:07:57;97451.22;;;18.24
64394;BMP280;50712;49.506;10.400;2023-08-31T01:10:04;97451.72;;;18.22
64394;BMP280;50712;49.506;10.400;2023-08-31T01:11:57;97454.47;;;18.22
64394;BMP280;50712;49.506;10.400;2023-08-31T01:13:58;97444.00;;;18.21
64394;BMP280;50712;49.506;10.400;2023-08-31T01:14:38;97450.75;;;18.20
64394;BMP280;50712;49.506;10.400;2023-08-31T01:15:12;97451.50;;;18.20
64394;BMP280;50712;49.506;10.400;2023-08-31T01:15:46;97447.25;;;18.19
64394;BMP280;50712;49.506;10.400;2023-08-31T01:16:20;97451.50;;;18.20
64394;BMP280;50712;49.506;10.400;2023-08-31T01:16:54;97445.22;;;18.20
64394;BMP280;50712;49.506;10.400;2023-08-31T01:17:29;97445.72;;;18.18
64394;BMP280;50712;49.506;10.400;2023-08-31T01:18:01;97448.00;;;18.20
64394;BMP280;50712;49.506;10.400;2023-08-31T01:18:31;97444.47;;;18.19
64394;BMP280;50712;49.506;10.400;2023-08-31T01:19:06;97445.22;;;18.20
64394;BMP280;50712;49.506;10.400;2023-08-31T01:19:48;97448.47;;;18.18
64394;BMP280;50712;49.506;10.400;2023-08-31T01:20:27;97450.00;;;18.19
64394;BMP280;50712;49.506;10.400;2023-08-31T01:21:06;97443.72;;;18.19
64394;BMP280;50712;49.506;10.400;2023-08-31T01:21:42;97442.97;;;18.18
64394;BMP280;50712;49.506;10.400;2023-08-31T01:23:01;97445.50;;;18.16
64394;BMP280;50712;49.506;10.400;2023-08-31T01:24:26;97443.25;;;18.15
64394;BMP280;50712;49.506;10.400;2023-08-31T01:24:58;97439.00;;;18.14
64394;BMP280;50712;49.506;10.400;2023-08-31T01:25:34;97439.00;;;18.14
64394;BMP280;50712;49.506;10.400;2023-08-31T01:26:05;97440.28;;;18.13
64394;BMP280;50712;49.506;10.400;2023-08-31T01:26:35;97446.53;;;18.13
64394;BMP280;50712;49.506;10.400;2023-08-31T01:27:06;97447.78;;;18.12
64394;BMP280;50712;49.506;10.400;2023-08-31T01:27:37;97440.03;;;18.11
64394;BMP280;50712;49.506;10.400;2023-08-31T01:28:08;97440.03;;;18.11
64394;BMP280;50712;49.506;10.400;2023-08-31T01:28:39;97433.78;;;18.10
64394;BMP280;50712;49.506;10.400;2023-08-31T01:29:10;97443.28;;;18.09
64394;BMP280;50712;49.506;10.400;2023-08-31T01:29:41;97438.31;;;18.08
64394;BMP280;50712;49.506;10.400;2023-08-31T01:30:11;97443.84;;;18.08
64394;BMP280;50712;49.506;10.400;2023-08-31T01:30:42;97442.84;;;18.05
64394;BMP280;50712;49.506;10.400;2023-08-31T01:31:12;97440.06;;;18.05
64394;BMP280;50712;49.506;10.400;2023-08-31T01:31:43;97442.09;;;18.05
64394;BMP280;50712;49.506;10.400;2023-08-31T01:32:15;97437.09;;;18.03
64394;BMP280;50712;49.506;10.400;2023-08-31T01:32:45;97437.09;;;18.03
64394;BMP280;50712;49.506;10.400;2023-08-31T01:33:15;97436.31;;;18.03
64394;BMP280;50712;49.506;10.400;2023-08-31T01:33:48;97436.31;;;18.03
64394;BMP280;50712;49.506;10.400;2023-08-31T01:34:18;97438.84;;;18.01
64394;BMP280;50712;49.506;10.400;2023-08-31T01:34:49;97438.84;;;18.01
64394;BMP280;50712;49.506;10.400;2023-08-31T01:35:21;97436.56;;;17.99
64394;BMP280;50712;49.506;10.400;2023-08-31T01:35:52;97438.59;;;17.99
64394;BMP280;50712;49.506;10.400;2023-08-31T01:36:28;97436.38;;;17.97
64394;BMP280;50712;49.506;10.400;2023-08-31T01:37:00;97440.38;;;17.96
64394;BMP280;50712;49.506;10.400;2023-08-31T01:37:43;97438.13;;;17.95
64394;BMP280;50712;49.506;10.400;2023-08-31T01:38:16;97436.63;;;17.94
64394;BMP280;50712;49.506;10.400;2023-08-31T01:38:55;97437.88;;;17.93
64394;BMP280;50712;49.506;10.400;2023-08-31T01:39:39;97433.66;;;17.92
64394;BMP280;50712;49.506;10.400;2023-08-31T01:40:54;97441.63;;;17.90
64394;BMP280;50712;49.506;10.400;2023-08-31T01:41:31;97441.63;;;17.90
64394;BMP280;50712;49.506;10.400;2023-08-31T01:42:06;97437.44;;;17.89
64394;BMP280;50712;49.506;10.400;2023-08-31T01:42:37;97437.16;;;17.87
64394;BMP280;50712;49.506;10.400;2023-08-31T01:43:09;97444.19;;;17.88
64394;BMP280;50712;49.506;10.400;2023-08-31T01:43:41;97442.66;;;17.87
64394;BMP280;50712;49.506;10.400;2023-08-31T01:44:13;97444.69;;;17.86
64394;BMP280;50712;49.506;10.400;2023-08-31T01:44:47;97447.47;;;17.86
64394;BMP280;50712;49.506;10.400;2023-08-31T01:45:19;97444.47;;;17.84
64394;BMP280;50712;49.506;10.400;2023-08-31T01:45:51;97444.47;;;17.84
64394;BMP280;50712;49.506;10.400;2023-08-31T01:46:21;97440.94;;;17.84
64394;BMP280;50712;49.506;10.400;2023-08-31T01:46:52;97442.94;;;17.83
64394;BMP280;50712;49.506;10.400;2023-08-31T01:47:27;97444.97;;;17.83
64394;BMP280;50712;49.506;10.400;2023-08-31T01:47:58;97446.97;;;17.82
64394;BMP280;50712;49.506;10.400;2023-08-31T01:48:28;97444.22;;;17.82
64394;BMP280;50712;49.506;10.400;2023-08-31T01:48:59;97446.22;;;17.82
64394;BMP280;50712;49.506;10.400;2023-08-31T01:49:35;97448.97;;;17.82
64394;BMP280;50712;49.506;10.400;2023-08-31T01:50:06;97446.69;;;17.80
64394;BMP280;50712;49.506;10.400;2023-08-31T01:50:36;97452.22;;;17.80
64394;BMP280;50712;49.506;10.400;2023-08-31T01:51:07;97446.50;;;17.78
64394;BMP280;50712;49.506;10.400;2023-08-31T01:51:40;97450.00;;;17.79
64394;BMP280;50712;49.506;10.400;2023-08-31T01:52:11;97452.00;;;17.78
64394;BMP280;50712;49.506;10.400;2023-08-31T01:52:41;97456.75;;;17.78
64394;BMP280;50712;49.506;10.400;2023-08-31T01:53:11;97448.50;;;17.78
64394;BMP280;50712;49.506;10.400;2023-08-31T01:53:42;97444.25;;;17.77
64394;BMP280;50712;49.506;10.400;2023-08-31T01:54:14;97449.75;;;17.77
64394;BMP280;50712;49.506;10.400;2023-08-31T01:54:45;97450.50;;;17.77
64394;BMP280;50712;49.506;10.400;2023-08-31T01:55:15;97460.78;;;17.77
64394;BMP280;50712;49.506;10.400;2023-08-31T01:55:46;97454.53;;;17.76
64394;BMP280;50712;49.506;10.400;2023-08-31T01:56:16;97454.53;;;17.76
64394;BMP280;50712;49.506;10.400;2023-08-31T01:56:46;97458.03;;;17.77
64394;BMP280;50712;49.506;10.400;2023-08-31T01:57:17;97450.50;;;17.77
64394;BMP280;50712;49.506;10.400;2023-08-31T01:58:05;97455.28;;;17.77
64394;BMP280;50712;49.506;10.400;2023-08-31T01:58:36;97453.75;;;17.76
64394;BMP280;50712;49.506;10.400;2023-08-31T01:59:06;97450.50;;;17.77
64394;BMP280;50712;49.506;10.400;2023-08-31T01:59:37;97455.28;;;17.77
64394;BMP280;50712;49.506;10.400;2023-08-31T02:00:09;97460.78;;;17.77
64394;BMP280;50712;49.506;10.400;2023-08-31T02:00:49;97455.78;;;17.75
64394;BMP280;50712;49.506;10.400;2023-08-31T02:01:20;97460.53;;;17.75
64394;BMP280;50712;49.506;10.400;2023-08-31T02:01:50;97458.31;;;17.73
64394;BMP280;50712;49.506;10.400;2023-08-31T02:02:21;97458.31;;;17.73
64394;BMP280;50712;49.506;10.400;2023-08-31T02:02:51;97458.78;;;17.71
64394;BMP280;50712;49.506;10.400;2023-08-31T02:03:21;97459.53;;;17.72
64394;BMP280;50712;49.506;10.400;2023-08-31T02:03:52;97456.56;;;17.70
64394;BMP280;50712;49.506;10.400;2023-08-31T02:04:22;97461.34;;;17.69
64394;BMP280;50712;49.506;10.400;2023-08-31T02:04:53;97456.56;;;17.70
64394;BMP280;50712;49.506;10.400;2023-08-31T02:05:23;97458.56;;;17.69
64394;BMP280;50712;49.506;10.400;2023-08-31T02:05:56;97461.81;;;17.68
64394;BMP280;50712;49.506;10.400;2023-08-31T02:06:27;97465.31;;;17.68
64394;BMP280;50712;49.506;10.400;2023-08-31T02:06:57;97457.56;;;17.67
64394;BMP280;50712;49.506;10.400;2023-08-31T02:07:28;97458.81;;;17.66
64394;BMP280;50712;49.506;10.400;2023-08-31T02:07:59;97458.06;;;17.65
64394;BMP280;50712;49.506;10.400;2023-08-31T02:08:29;97460.81;;;17.65
64394;BMP280;50712;49.506;10.400;2023-08-31T02:08:59;97463.56;;;17.65
64394;BMP280;50712;49.506;10.400;2023-08-31T02:09:30;97461.34;;;17.64
64394;BMP280;50712;49.506;10.400;2023-08-31T02:10:00;97461.34;;;17.64
64394;BMP280;50712;49.506;10.400;2023-08-31T02:10:31;97459.84;;;17.63
64394;BMP280;50712;49.506;10.400;2023-08-31T02:11:01;97455.56;;;17.62
64394;BMP280;50712;49.506;10.400;2023-08-31T02:11:31;97459.84;;;17.63
64394;BMP280;50712;49.506;10.400;2023-08-31T02:12:05;97459.09;;;17.62
64394;BMP280;50712;49.506;10.400;2023-08-31T02:12:35;97452.81;;;17.62
64394;BMP280;50712;49.506;10.400;2023-08-31T02:13:07;97454.81;;;17.61
64394;BMP280;50712;49.506;10.400;2023-08-31T02:13:37;97460.34;;;17.61
64394;BMP280;50712;49.506;10.400;2023-08-31T02:14:07;97463.09;;;17.61
64394;BMP280;50712;49.506;10.400;2023-08-31T02:14:38;97454.06;;;17.61
64394;BMP280;50712;49.506;10.400;2023-08-31T02:15:08;97453.34;;;17.60
64394;BMP280;50712;49.506;10.400;2023-08-31T02:15:40;97460.13;;;17.59
64394;BMP280;50712;49.506;10.400;2023-08-31T02:16:11;97455.34;;;17.60
64394;BMP280;50712;49.506;10.400;2023-08-31T02:16:42;97458.84;;;17.60
64394;BMP280;50712;49.506;10.400;2023-08-31T02:17:12;97455.34;;;17.60
64394;BMP280;50712;49.506;10.400;2023-08-31T02:17:42;97460.13;;;17.59
64394;BMP280;50712;49.506;10.400;2023-08-31T02:18:13;97454.59;;;17.59
64394;BMP280;50712;49.506;10.400;2023-08-31T02:18:43;97455.84;;;17.58
64394;BMP280;50712;49.506;10.400;2023-08-31T02:19:14;97455.84;;;17.58
64394;BMP280;50712;49.506;10.400;2023-08-31T02:19:44;97455.84;;;17.58
64394;BMP280;50712;49.506;10.400;2023-08-31T02:20:15;97453.59;;;17.57
64394;BMP280;50712;49.506;10.400;2023-08-31T02:20:45;97457.13;;;17.57
64394;BMP280;50712;49.506;10.400;2023-08-31T02:21:16;97455.09;;;17.58
64394;BMP280;50712;49.506;10.400;2023-08-31T02:21:46;97453.59;;;17.57
64394;BMP280;50712;49.506;10.400;2023-08-31T02:22:16;97463.88;;;17.56
64394;BMP280;50712;49.506;10.400;2023-08-31T02:22:47;97459.13;;;17.57
64394;BMP280;50712;49.506;10.400;2023-08-31T02:23:18;97461.13;;;17.56
64394;BMP280;50712;49.506;10.400;2023-08-31T02:23:49;97458.34;;;17.56
64394;BMP280;50712;49.506;10.400;2023-08-31T02:24:19;97462.38;;;17.55
64394;BMP280;50712;49.506;10.400;2023-08-31T02:24:50;97463.88;;;17.56
64394;BMP280;50712;49.506;10.400;2023-08-31T02:25:21;97459.63;;;17.55
64394;BMP280;50712;49.506;10.400;2023-08-31T02:25:52;97459.63;;;17.55
64394;BMP280;50712;49.506;10.400;2023-08-31T02:26:22;97463.09;;;17.56
64394;BMP280;50712;49.506;10.400;2023-08-31T02:26:52;97467.88;;;17.55
64394;BMP280;50712;49.506;10.400;2023-08-31T02:27:23;97462.38;;;17.55
64394;BMP280;50712;49.506;10.400;2023-08-31T02:27:53;97465.13;;;17.55
64394;BMP280;50712;49.506;10.400;2023-08-31T02:28:24;97463.63;;;17.54
64394;BMP280;50712;49.506;10.400;2023-08-31T02:28:55;97465.13;;;17.55
64394;BMP280;50712;49.506;10.400;2023-08-31T02:29:25;97474.88;;;17.56
64394;BMP280;50712;49.506;10.400;2023-08-31T02:29:56;97467.13;;;17.55
64394;BMP280;50712;49.506;10.400;2023-08-31T02:30:26;97467.13;;;17.55
64394;BMP280;50712;49.506;10.400;2023-08-31T02:31:00;97467.13;;;17.55
64394;BMP280;50712;49.506;10.400;2023-08-31T02:31:34;97465.13;;;17.55
64394;BMP280;50712;49.506;10.400;2023-08-31T02:32:05;97470.66;;;17.55
64394;BMP280;50712;49.506;10.400;2023-08-31T02:32:37;97461.63;;;17.55
64394;BMP280;50712;49.506;10.400;2023-08-31T02:33:07;97467.88;;;17.55
64394;BMP280;50712;49.506;10.400;2023-08-31T02:33:39;97470.66;;;17.55
64394;BMP280;50712;49.506;10.400;2023-08-31T02:34:10;97463.09;;;17.56
64394;BMP280;50712;49.506;10.400;2023-08-31T02:34:40;97465.13;;;17.55
64394;BMP280;50712;49.506;10.400;2023-08-31T02:35:10;97467.13;;;17.55
64394;BMP280;50712;49.506;10.400;2023-08-31T02:35:42;97458.88;;;17.55
64394;BMP280;50712;49.506;10.400;2023-08-31T02:36:12;97465.88;;;17.56
64394;BMP280;50712;49.506;10.400;2023-08-31T02:36:43;97470.66;;;17.55
64394;BMP280;50712;49.506;10.400;2023-08-31T02:37:14;97472.88;;;17.57
64394;BMP280;50712;49.506;10.400;2023-08-31T02:37:44;97466.63;;;17.56
64394;BMP280;50712;49.506;10.400;2023-08-31T02:38:14;97470.66;;;17.55
64394;BMP280;50712;49.506;10.400;2023-08-31T02:38:45;97476.16;;;17.55
64394;BMP280;50712;49.506;10.400;2023-08-31T02:39:17;97472.66;;;17.55
64394;BMP280;50712;49.506;10.400;2023-08-31T02:39:47;97477.41;;;17.54
64394;BMP280;50712;49.506;10.400;2023-08-31T02:40:18;97475.41;;;17.55
64394;BMP280;50712;49.506;10.400;2023-08-31T02:40:48;97475.91;;;17.53
64394;BMP280;50712;49.506;10.400;2023-08-31T02:41:19;97472.41;;;17.53
64394;BMP280;50712;49.506;10.400;2023-08-31T02:41:49;97482.66;;;17.52
64394;BMP280;50712;49.506;10.400;2023-08-31T02:42:21;97484.66;;;17.52
64394;BMP280;50712;49.506;10.400;2023-08-31T02:42:51;97482.66;;;17.52
64394;BMP280;50712;49.506;10.400;2023-08-31T02:43:22;97479.91;;;17.52
64394;BMP280;50712;49.506;10.400;2023-08-31T02:43:53;97476.94;;;17.50
64394;BMP280;50712;49.506;10.400;2023-08-31T02:44:24;97476.94;;;17.50
64394;BMP280;50712;49.506;10.400;2023-08-31T02:44:54;97474.94;;;17.51
64394;BMP280;50712;49.506;10.400;2023-08-31T02:45:25;97476.94;;;17.50
64394;BMP280;50712;49.506;10.400;2023-08-31T02:45:59;97481.69;;;17.50
64394;BMP280;50712;49.506;10.400;2023-08-31T02:46:31;97475.41;;;17.49
64394;BMP280;50712;49.506;10.400;2023-08-31T02:47:01;97480.94;;;17.49
64394;BMP280;50712;49.506;10.400;2023-08-31T02:47:32;97482.94;;;17.49
64394;BMP280;50712;49.506;10.400;2023-08-31T02:48:02;97477.41;;;17.49
64394;BMP280;50712;49.506;10.400;2023-08-31T02:48:33;97473.91;;;17.48
64394;BMP280;50712;49.506;10.400;2023-08-31T02:49:04;97480.19;;;17.49
64394;BMP280;50712;49.506;10.400;2023-08-31T02:49:34;97479.41;;;17.48
64394;BMP280;50712;49.506;10.400;2023-08-31T02:50:05;97470.91;;;17.46
64394;BMP280;50712;49.506;10.400;2023-08-31T02:50:37;97473.66;;;17.46
64394;BMP280;50712;49.506;10.400;2023-08-31T02:51:08;97481.19;;;17.46
64394;BMP280;50712;49.506;10.400;2023-08-31T02:51:38;97480.44;;;17.45
64394;BMP280;50712;49.506;10.400;2023-08-31T02:52:09;97474.19;;;17.45
64394;BMP280;50712;49.506;10.400;2023-08-31T02:52:40;97473.44;;;17.44
64394;BMP280;50712;49.506;10.400;2023-08-31T02:53:10;97475.44;;;17.44
64394;BMP280;50712;49.506;10.400;2023-08-31T02:53:41;97476.69;;;17.43
64394;BMP280;50712;49.506;10.400;2023-08-31T02:54:11;97476.69;;;17.43
64394;BMP280;50712;49.506;10.400;2023-08-31T02:54:41;97465.44;;;17.41
64394;BMP280;50712;49.506;10.400;2023-08-31T02:55:12;97473.16;;;17.42
64394;BMP280;50712;49.506;10.400;2023-08-31T02:55:42;97475.16;;;17.42
64394;BMP280;50712;49.506;10.400;2023-08-31T02:56:13;97475.72;;;17.40
64394;BMP280;50712;49.506;10.400;2023-08-31T02:56:43;97474.19;;;17.39
64394;BMP280;50712;49.506;10.400;2023-08-31T02:57:13;97476.94;;;17.39
64394;BMP280;50712;49.506;10.400;2023-08-31T02:57:45;97479.72;;;17.39
64394;BMP280;50712;49.506;10.400;2023-08-31T02:58:16;97476.19;;;17.39
64394;BMP280;50712;49.506;10.400;2023-08-31T02:58:46;97475.47;;;17.38
64394;BMP280;50712;49.506;10.400;2023-08-31T02:59:16;97477.47;;;17.38
64394;BMP280;50712;49.506;10.400;2023-08-31T02:59:50;97469.19;;;17.38
64394;BMP280;50712;49.506;10.400;2023-08-31T03:00:20;97471.72;;;17.36
64394;BMP280;50712;49.506;10.400;2023-08-31T03:00:52;97477.22;;;17.36
64394;BMP280;50712;49.506;10.400;2023-08-31T03:01:23;97470.94;;;17.35
64394;BMP280;50712;49.506;10.400;2023-08-31T03:01:55;97468.72;;;17.34
64394;BMP280;50712;49.506;10.400;2023-08-31T03:02:25;97480.47;;;17.34
64394;BMP280;50712;49.506;10.400;2023-08-31T03:02:56;97469.94;;;17.33
64394;BMP280;50712;49.506;10.400;2023-08-31T03:03:26;97473.47;;;17.33
64394;BMP280;50712;49.506;10.400;2023-08-31T03:03:56;97473.97;;;17.32
64394;BMP280;50712;49.506;10.400;2023-08-31T03:04:27;97475.97;;;17.31
64394;BMP280;50712;49.506;10.400;2023-08-31T03:04:57;97470.97;;;17.30
64394;BMP280;50712;49.506;10.400;2023-08-31T03:05:28;97476.47;;;17.30
64394;BMP280;50712;49.506;10.400;2023-08-31T03:05:58;97470.22;;;17.29
64394;BMP280;50712;49.506;10.400;2023-08-31T03:06:31;97474.22;;;17.28
64394;BMP280;50712;49.506;10.400;2023-08-31T03:07:03;97471.97;;;17.27
64394;BMP280;50712;49.506;10.400;2023-08-31T03:07:34;97475.47;;;17.27
64394;BMP280;50712;49.506;10.400;2023-08-31T03:08:04;97472.50;;;17.25
64394;BMP280;50712;49.506;10.400;2023-08-31T03:08:35;97470.47;;;17.26
64394;BMP280;50712;49.506;10.400;2023-08-31T03:09:06;97471.75;;;17.25
64394;BMP280;50712;49.506;10.400;2023-08-31T03:09:38;97475.75;;;17.24
64394;BMP280;50712;49.506;10.400;2023-08-31T03:10:09;97471.47;;;17.23